This is the latest recevied weather packets stored in our database for station/object NT9M-13. If no packets are shown the sender has not sent any weather packets the latest 10 day(s).
| Time | Temp. | Humidity | Pressure | Rain* | Wind** | Luminosity | Snow |
|---|---|---|---|---|---|---|---|
| 1778110779 | 13.33° C | 53% | 1013.5 hPa | 0 mm | - | - | - |
| 1778107779 | 13.89° C | 50% | 1013.6 hPa | 0 mm | - | - | - |
| 1778107179 | 13.89° C | 50% | 1013.6 hPa | 0 mm | - | - | - |
| 1778100579 | 15° C | 47% | 1013.6 hPa | 0 mm | - | - | - |
| 1778085580 | 13.89° C | 51% | 1014.1 hPa | 0 mm | - | - | - |
| 1778080780 | 13.33° C | 54% | 1014 hPa | 0 mm | - | - | - |
| 1778080180 | 13.33° C | 51% | 1014 hPa | 0 mm | - | - | - |
| 1778070580 | 8.33° C | 75% | 1012.7 hPa | 0 mm | - | - | - |
| 1778068180 | 7.22° C | 81% | 1012 hPa | 0 mm | - | - | - |
| 1778066380 | 7.22° C | 81% | 1011.4 hPa | 0 mm | - | - | - |
| 1778064580 | 7.78° C | 80% | 1011.1 hPa | 0 mm | - | - | - |
| 1778063980 | 7.78° C | 80% | 1011.3 hPa | 0 mm | - | - | - |
| 1778060981 | 8.33° C | 79% | 1011.1 hPa | 0 mm | - | - | - |
| 1778055581 | 9.44° C | 80% | 1009.9 hPa | 0 mm | - | - | - |
| 1778051980 | 10° C | 86% | 1009.9 hPa | 0 mm | - | - | - |
| 1778047181 | 10° C | 87% | 1010.5 hPa | 0 mm | - | - | - |
| 1778044781 | 10° C | 86% | 1010.5 hPa | 0 mm | - | - | - |
| 1778044180 | 10° C | 86% | 1010.4 hPa | 0 mm | - | - | - |
| 1778033381 | 10.56° C | 82% | 1009.6 hPa | 0 mm | - | - | - |
| 1778032781 | 10.56° C | 82% | 1009.5 hPa | 0 mm | - | - | - |
| 1778031581 | 10.56° C | 81% | 1009.1 hPa | 0 mm | - | - | - |
| 1778028581 | 10.56° C | 80% | 1008.6 hPa | 0 mm | - | - | - |
| 1778026781 | 11.11° C | 77% | 1008.6 hPa | 0.25 mm | - | - | - |
| 1778020781 | 11.67° C | 63% | 1009.1 hPa | 0 mm | - | - | - |
| 1778019581 | 12.22° C | 62% | 1009 hPa | 0 mm | - | - | - |
* Rain latest hour (hover to see other rain measurements)
** Current wind speed in m/s (hover to see current wind gust speed)